Smoot, WY

4:39 PM MDT on August 03, 2015 (GMT -0600)
KWYAFTON2 | | Change Station
CLOSE
Current Station
Personal Weather Station
Location: Afton, WY
Elevation: 6312 ft
Nearby Weather Stations

Elev 6312 ft 42.67 °N, 110.94 °W | Updated 4 minutes ago

Rain
Rain
59.2 °F
Feels Like 59.2 °F
N
4.0
Wind Variable Wind from NNW

Today
High -- | Low -- °F
--% Chance of Precip.
Yesterday
High -- | Low -- °F
Precip. -- in
6:17 AM 8:41 PM
Waning Gibbous, 83% visible
Pressure 30.15 in
Visibility 10.0 miles
Clouds Scattered Clouds 2000 ft
Mostly Cloudy 4300 ft
Overcast 7500 ft
Dew Point 55 °F
Humidity 86%
Rainfall 0.04 in
Snow Depth Not available.
UV 2 out of 12
Pollen 4.30 out of 12
Air Quality Not available.
Flu Activity Not available.
METAR KAFO 032235Z AUTO 00000KT 10SM DZ SCT020 BKN043 OVC075 15/12 A3015 RMK AO2 TSNO

More Conditions Fewer Conditions

Pressure 30.15 in
Visibility 10.0 miles
Clouds Scattered Clouds 2000 ft
Mostly Cloudy 4300 ft
Overcast 7500 ft
Dew Point 55 °F
Humidity 86%
Rainfall 0.04 in
Snow Depth Not available.
UV 2 out of 12
Pollen 4.30 out of 12
Air Quality Not available.
Flu Activity Not available.
METAR KAFO 032235Z AUTO 00000KT 10SM DZ SCT020 BKN043 OVC075 15/12 A3015 RMK AO2 TSNO

More Conditions Fewer Conditions

10-Day Weather Forecast

×

Almanac

Astronomy

Aug. 03, 2015 Rise Set
Actual Time
Civil Twilight
Nautical Twilight
Astronomical Twilight
Moon
Length of Visible Light
Length of Day
Tomorrow will be .
, % of the Moon is Illuminated

Today's Extremes

State Highs State Lows

Community

WunderPhotos

Upload Photos

1,843,785 photos uploaded!

WunderBlogs® & News

Nearby

Air Quality

  Air Quality AQ Index Pollutant
Not available.

Snow Depth

Station Depth Elevation

Earthquake Activity

City Distance Mag. Time & Date
Minimum magnitude displayed is 2.5.

Coastal Water Temperatures

Place Temperature

Stations

Nearby Weather Stations

Station Location Temp. Windchill Dew Point Humidity Wind Precip. Elev Updated Type